Time;durP1;ratioP1;P1;durP2;ratioP2;P2;SDS_P1;SDS_P2;PMS_P1;PMS_P2;Temp;Humidity;BMP_temperature;BMP_pressure;BME280_temperature;BME280_humidity;BME280_pressure;Samples;Min_cycle;Max_cycle;Signal;HPM_P1;HPM_P2
2022/11/19 00:01:45;;;;;;;2.17;0.55;;;;;;;5.91;100.00;100571.34;5226358;28;20029;-68
2022/11/19 00:04:16;;;;;;;1.15;0.22;;;;;;;5.84;100.00;100568.22;5226198;28;20034;-68
2022/11/19 00:06:49;;;;;;;1.25;0.20;;;;;;;5.79;100.00;100567.66;5228157;28;22085;-68
2022/11/19 00:09:21;;;;;;;1.23;0.35;;;;;;;5.74;100.00;100572.38;5227573;28;20087;-67
2022/11/19 00:14:42;;;;;;;1.70;0.30;;;;;;;5.58;100.00;100569.81;5225687;28;20116;-67
2022/11/19 00:17:13;;;;;;;1.48;0.40;;;;;;;5.54;100.00;100570.91;5229895;28;20037;-68
2022/11/19 00:19:44;;;;;;;1.17;0.25;;;;;;;5.52;100.00;100577.25;5225574;28;20034;-68
2022/11/19 00:22:16;;;;;;;1.42;0.40;;;;;;;5.49;100.00;100580.94;5222301;28;20065;-65
2022/11/19 00:24:47;;;;;;;1.92;0.20;;;;;;;5.46;100.00;100578.47;5227866;28;20031;-65
2022/11/19 00:27:18;;;;;;;1.33;0.28;;;;;;;5.42;100.00;100585.75;5226526;28;20025;-65
2022/11/19 00:29:49;;;;;;;2.15;0.63;;;;;;;5.42;100.00;100574.31;5226844;28;20560;-66
2022/11/19 00:32:21;;;;;;;0.68;0.10;;;;;;;5.38;100.00;100588.66;5228770;28;20026;-66
2022/11/19 00:34:52;;;;;;;0.63;0.20;;;;;;;5.33;100.00;100591.59;5228108;28;20031;-65
2022/11/19 00:37:23;;;;;;;0.77;0.20;;;;;;;5.32;100.00;100589.88;5228626;28;20360;-65
2022/11/19 00:39:55;;;;;;;1.73;0.28;;;;;;;5.30;100.00;100595.25;5227637;28;20029;-65
2022/11/19 00:42:27;;;;;;;1.45;0.65;;;;;;;5.26;100.00;100600.81;5224309;28;20029;-66
2022/11/19 00:44:58;;;;;;;1.17;0.22;;;;;;;5.21;100.00;100603.72;5226009;28;20599;-65
2022/11/19 00:47:29;;;;;;;1.23;0.22;;;;;;;5.19;100.00;100600.31;5220983;28;20349;-65
2022/11/19 00:50:01;;;;;;;1.55;0.30;;;;;;;5.17;100.00;100601.34;5225565;28;20434;-65
2022/11/19 00:52:32;;;;;;;0.95;0.15;;;;;;;5.14;100.00;100599.75;5241783;28;20019;-65
2022/11/19 00:55:04;;;;;;;0.95;0.35;;;;;;;5.13;100.00;100599.84;5225158;28;20152;-65
2022/11/19 00:57:35;;;;;;;1.45;0.30;;;;;;;5.09;100.00;100604.44;5224073;28;20099;-65
2022/11/19 01:00:07;;;;;;;1.67;0.35;;;;;;;5.03;100.00;100600.34;5225495;28;20045;-65
2022/11/19 01:02:38;;;;;;;1.02;0.20;;;;;;;4.99;100.00;100598.84;5226328;28;20065;-65
2022/11/19 01:05:10;;;;;;;1.75;0.40;;;;;;;4.95;100.00;100609.66;5225960;28;20116;-64
2022/11/19 01:07:41;;;;;;;0.82;0.20;;;;;;;4.91;100.00;100606.34;5228924;28;20036;-64
2022/11/19 01:10:12;;;;;;;0.98;0.30;;;;;;;4.89;100.00;100610.88;5225972;28;20166;-65
2022/11/19 01:15:33;;;;;;;1.98;0.35;;;;;;;4.85;100.00;100612.84;5223743;28;20049;-64
2022/11/19 01:18:05;;;;;;;1.38;0.20;;;;;;;4.82;100.00;100625.38;5229381;28;20491;-64
2022/11/19 01:20:36;;;;;;;1.15;0.30;;;;;;;4.81;100.00;100618.38;5224711;28;20101;-65
2022/11/19 01:23:07;;;;;;;1.23;0.30;;;;;;;4.77;100.00;100624.78;5227649;28;20037;-64
2022/11/19 01:25:39;;;;;;;0.88;0.20;;;;;;;4.76;100.00;100629.22;5227280;28;20056;-64
2022/11/19 01:28:10;;;;;;;1.95;0.68;;;;;;;4.71;100.00;100632.09;5227382;28;20522;-64
2022/11/19 01:30:42;;;;;;;1.17;0.28;;;;;;;4.68;100.00;100642.84;5227231;28;20029;-64
2022/11/19 01:33:13;;;;;;;0.93;0.20;;;;;;;4.69;100.00;100641.06;5225131;28;20116;-64
2022/11/19 01:35:59;;;;;;;1.48;0.32;;;;;;;4.68;100.00;100648.13;5224747;28;20106;-65
2022/11/19 01:38:30;;;;;;;2.13;0.25;;;;;;;4.66;100.00;100649.13;5226131;28;20389;-64
2022/11/19 01:41:03;;;;;;;2.72;0.82;;;;;;;4.60;100.00;100646.84;5227307;28;20430;-65
2022/11/19 01:43:52;;;;;;;1.55;0.57;;;;;;;4.57;100.00;100649.66;5227837;28;20079;-65
2022/11/19 01:46:26;;;;;;;1.40;0.30;;;;;;;4.54;100.00;100657.75;5225246;28;20040;-64
2022/11/19 01:49:02;;;;;;;2.03;0.60;;;;;;;4.52;100.00;100657.81;5226530;28;20037;-65
2022/11/19 01:51:37;;;;;;;1.45;0.68;;;;;;;4.51;100.00;100661.41;5226099;28;20042;-65
2022/11/19 01:54:28;;;;;;;0.47;0.10;;;;;;;4.48;100.00;100667.69;5220400;28;20021;-65
2022/11/19 01:57:10;;;;;;;1.33;0.30;;;;;;;4.41;100.00;100666.34;5221059;28;20048;-64
2022/11/19 01:59:45;;;;;;;0.90;0.30;;;;;;;4.40;100.00;100666.44;5226802;28;20033;-64
2022/11/19 02:02:18;;;;;;;1.73;0.28;;;;;;;4.38;100.00;100666.50;5227136;28;20029;-65
2022/11/19 02:04:51;;;;;;;0.88;0.15;;;;;;;4.37;100.00;100664.78;5228323;28;20029;-65
2022/11/19 02:07:27;;;;;;;1.23;0.40;;;;;;;4.35;100.00;100666.66;5225180;28;20116;-65
2022/11/19 02:10:04;;;;;;;0.68;0.20;;;;;;;4.32;100.00;100674.75;5229338;28;20056;-65
2022/11/19 02:12:44;;;;;;;1.45;0.40;;;;;;;4.30;100.00;100679.28;5229038;28;20033;-65
2022/11/19 02:15:28;;;;;;;0.95;0.30;;;;;;;4.28;100.00;100675.88;5230729;28;20395;-65
2022/11/19 02:18:20;;;;;;;0.77;0.20;;;;;;;4.25;100.00;100674.22;5226790;28;20538;-65
2022/11/19 02:21:24;;;;;;;0.47;0.10;;;;;;;4.26;100.00;100681.22;5234588;28;20033;-65
2022/11/19 02:24:01;;;;;;;1.45;0.20;;;;;;;4.22;100.00;100682.31;5223836;28;20060;-65
2022/11/19 02:27:02;;;;;;;1.08;0.22;;;;;;;4.24;100.00;100676.97;5238117;28;20037;-65
2022/11/19 02:30:06;;;;;;;0.93;0.25;;;;;;;4.22;100.00;100681.44;5229496;28;20068;-65
2022/11/19 02:32:58;;;;;;;1.50;0.25;;;;;;;4.19;100.00;100673.69;5229264;28;20048;-65
2022/11/19 02:35:40;;;;;;;1.00;0.30;;;;;;;4.12;100.00;100678.44;5227970;28;20562;-67
2022/11/19 02:38:38;;;;;;;1.13;0.28;;;;;;;4.09;100.00;100675.97;5234733;28;20033;-67
2022/11/19 02:41:35;;;;;;;0.75;0.17;;;;;;;4.06;100.00;100676.13;5235329;28;20579;-67
2022/11/19 02:47:14;;;;;;;1.80;0.43;;;;;;;3.97;100.00;100688.03;5238234;28;20038;-65
2022/11/19 02:49:46;;;;;;;0.90;0.17;;;;;;;3.92;100.00;100685.59;5232558;28;20353;-65
2022/11/19 02:52:18;;;;;;;0.88;0.25;;;;;;;3.88;100.00;100691.13;5241806;28;20053;-65
2022/11/19 02:54:49;;;;;;;1.33;0.43;;;;;;;3.85;100.00;100683.34;5238605;28;20028;-65
2022/11/19 02:57:20;;;;;;;0.80;0.20;;;;;;;3.80;100.00;100693.31;5231670;28;20064;-65
2022/11/19 03:06:06;;;;;;;2.17;0.30;;;;;;;3.66;100.00;100697.50;5231248;28;20493;-65
2022/11/19 03:08:38;;;;;;;0.63;0.10;;;;;;;3.65;100.00;100706.34;5230713;28;20502;-65
2022/11/19 03:11:20;;;;;;;0.95;0.20;;;;;;;3.61;100.00;100707.41;5231247;28;20029;-65
2022/11/19 03:17:14;;;;;;;0.28;0.10;;;;;;;3.54;100.00;100717.41;5234225;28;20045;-65
2022/11/19 03:19:55;;;;;;;0.55;0.17;;;;;;;3.51;100.00;100711.47;5230829;28;20037;-65
2022/11/19 03:22:57;;;;;;;0.55;0.15;;;;;;;3.47;100.00;100715.16;5236803;28;20041;-65
2022/11/19 03:25:37;;;;;;;0.73;0.30;;;;;;;3.43;100.00;100709.19;5235835;28;20135;-65
2022/11/19 03:28:13;;;;;;;1.45;0.50;;;;;;;3.39;100.00;100714.69;5229623;28;20041;-65
2022/11/19 03:30:46;;;;;;;1.67;0.38;;;;;;;3.36;100.00;100713.06;5228669;28;20046;-65
2022/11/19 03:33:24;;;;;;;1.27;0.30;;;;;;;3.33;100.00;100719.31;5231770;28;20033;-65
2022/11/19 03:36:00;;;;;;;3.20;0.68;;;;;;;3.32;100.00;100722.03;5232475;28;20465;-65
2022/11/19 03:38:39;;;;;;;1.02;0.32;;;;;;;3.30;100.00;100718.63;5225089;28;20119;-65
2022/11/19 03:41:15;;;;;;;0.82;0.28;;;;;;;3.29;100.00;100722.19;5236763;28;20021;-65
2022/11/19 03:43:52;;;;;;;0.75;0.15;;;;;;;3.27;100.00;100710.84;5229508;28;20472;-65
2022/11/19 03:46:26;;;;;;;0.55;0.13;;;;;;;3.25;100.00;100710.06;5226384;28;20048;-66
2022/11/19 03:49:00;;;;;;;0.60;0.20;;;;;;;3.26;100.00;100719.69;5221779;28;20399;-65
2022/11/19 03:52:05;;;;;;;0.75;0.20;;;;;;;3.25;100.00;100724.09;5227268;28;20087;-66
2022/11/19 03:54:38;;;;;;;0.47;0.20;;;;;;;3.21;100.00;100726.97;5229098;28;20053;-66
2022/11/19 03:57:13;;;;;;;0.97;0.10;;;;;;;3.15;100.00;100730.75;5226588;28;20025;-66
2022/11/19 03:59:45;;;;;;;0.77;0.13;;;;;;;3.14;100.00;100732.56;5227730;28;20071;-65
2022/11/19 04:02:16;;;;;;;1.45;0.30;;;;;;;3.13;100.00;100735.25;5227335;28;20555;-66
2022/11/19 04:04:48;;;;;;;0.40;0.17;;;;;;;3.11;100.00;100730.03;5227414;28;20507;-67
2022/11/19 04:07:23;;;;;;;0.93;0.15;;;;;;;3.11;100.00;100734.47;5229280;28;20025;-65
2022/11/19 04:09:54;;;;;;;0.22;0.10;;;;;;;3.12;100.00;100726.47;5230505;28;20040;-66
2022/11/19 04:12:26;;;;;;;0.85;0.20;;;;;;;3.16;100.00;100740.34;5226929;28;20445;-66
2022/11/19 04:14:57;;;;;;;1.38;0.28;;;;;;;3.13;100.00;100733.47;5227165;28;20087;-67
2022/11/19 04:17:28;;;;;;;1.65;0.40;;;;;;;3.08;100.00;100739.88;5226868;28;20040;-66
2022/11/19 04:20:00;;;;;;;0.95;0.30;;;;;;;3.04;100.00;100739.16;5226783;28;20427;-65
2022/11/19 04:22:31;;;;;;;0.63;0.20;;;;;;;3.01;100.00;100743.72;5227911;28;20033;-65
2022/11/19 04:25:02;;;;;;;1.65;0.20;;;;;;;2.96;100.00;100754.47;5227442;28;20029;-65
2022/11/19 04:27:34;;;;;;;1.75;0.60;;;;;;;2.90;100.00;100758.25;5228593;28;20033;-65
2022/11/19 04:30:06;;;;;;;2.22;0.50;;;;;;;2.85;100.00;100765.50;5227247;28;20033;-65
2022/11/19 04:32:37;;;;;;;1.40;0.50;;;;;;;2.82;100.00;100760.41;5231048;28;20049;-65
2022/11/19 04:35:09;;;;;;;2.00;0.47;;;;;;;2.79;100.00;100770.22;5227580;28;20699;-65
2022/11/19 04:37:40;;;;;;;1.67;0.45;;;;;;;2.72;100.00;100765.22;5230537;28;21426;-65
2022/11/19 04:40:12;;;;;;;1.25;0.50;;;;;;;2.69;100.00;100775.91;5242755;28;20420;-65
2022/11/19 04:42:43;;;;;;;1.98;0.50;;;;;;;2.67;100.00;100769.84;5233192;28;20527;-65
2022/11/19 04:45:15;;;;;;;3.05;0.60;;;;;;;2.66;100.00;100767.28;5227912;28;20044;-65
2022/11/19 04:47:46;;;;;;;3.28;0.68;;;;;;;2.67;100.00;100769.00;5229213;28;20119;-65
2022/11/19 04:50:17;;;;;;;1.60;0.40;;;;;;;2.67;100.00;100761.09;5237384;28;20082;-65
2022/11/19 04:52:49;;;;;;;2.20;0.43;;;;;;;2.66;100.00;100768.13;5233981;28;20034;-65
2022/11/19 04:55:20;;;;;;;2.05;0.40;;;;;;;2.67;100.00;100774.25;5226040;28;20037;-65
2022/11/19 04:57:52;;;;;;;1.77;0.40;;;;;;;2.66;100.00;100775.16;5227489;28;20037;-65
2022/11/19 05:00:23;;;;;;;1.13;0.30;;;;;;;2.68;100.00;100775.97;5226498;28;20029;-65
2022/11/19 05:02:54;;;;;;;1.77;0.30;;;;;;;2.68;100.00;100783.84;5226705;28;20080;-65
2022/11/19 05:05:26;;;;;;;1.15;0.30;;;;;;;2.66;100.00;100781.28;5225084;28;20332;-64
2022/11/19 05:07:57;;;;;;;1.80;0.40;;;;;;;2.64;100.00;100777.03;5229117;28;20040;-65
2022/11/19 05:10:28;;;;;;;1.25;0.30;;;;;;;2.60;100.00;100776.31;5226345;28;20041;-65
2022/11/19 05:12:59;;;;;;;1.88;0.68;;;;;;;2.55;100.00;100794.06;5222739;28;20116;-64
2022/11/19 05:15:31;;;;;;;3.97;0.70;;;;;;;2.51;100.00;100800.41;5225545;28;20025;-65
2022/11/19 05:18:02;;;;;;;1.40;0.40;;;;;;;2.50;100.00;100801.34;5220676;28;20068;-65
2022/11/19 05:20:33;;;;;;;1.40;0.38;;;;;;;2.50;100.00;100803.97;5226882;28;20116;-65
2022/11/19 05:23:05;;;;;;;1.08;0.30;;;;;;;2.51;100.00;100803.91;5224880;28;20043;-65
2022/11/19 05:25:36;;;;;;;1.55;0.47;;;;;;;2.47;100.00;100810.22;5226865;28;20029;-64
2022/11/19 05:28:08;;;;;;;1.27;0.40;;;;;;;2.48;100.00;100814.56;5228270;28;20506;-64
2022/11/19 05:30:39;;;;;;;1.77;0.40;;;;;;;2.48;100.00;100805.81;5226562;28;20050;-65
2022/11/19 05:33:10;;;;;;;1.38;0.40;;;;;;;2.47;100.00;100802.31;5219712;28;20041;-65
2022/11/19 05:35:41;;;;;;;1.88;0.55;;;;;;;2.49;100.00;100810.16;5224324;28;20517;-65
2022/11/19 05:38:13;;;;;;;1.05;0.20;;;;;;;2.50;100.00;100819.78;5220872;28;20372;-64
2022/11/19 05:40:46;;;;;;;1.48;0.30;;;;;;;2.49;100.00;100821.56;5218466;28;20791;-65
2022/11/19 05:43:18;;;;;;;0.88;0.28;;;;;;;2.49;100.00;100818.94;5222499;28;20061;-65
2022/11/19 05:45:49;;;;;;;1.55;0.25;;;;;;;2.47;100.00;100823.38;5222501;28;20108;-64
2022/11/19 05:48:20;;;;;;;1.20;0.47;;;;;;;2.47;100.00;100817.25;5224508;28;20412;-64
2022/11/19 05:50:51;;;;;;;0.52;0.10;;;;;;;2.46;100.00;100818.19;5224601;28;20045;-65
2022/11/19 05:53:23;;;;;;;1.52;0.20;;;;;;;2.45;100.00;100825.22;5224262;28;20029;-65
2022/11/19 05:55:54;;;;;;;1.15;0.25;;;;;;;2.45;100.00;100827.84;5217089;28;20036;-65
2022/11/19 05:58:25;;;;;;;1.23;0.40;;;;;;;2.48;100.00;100827.75;5223159;28;20044;-65
2022/11/19 06:00:58;;;;;;;0.43;0.10;;;;;;;2.48;100.00;100833.00;5218302;28;20067;-65
2022/11/19 06:03:30;;;;;;;0.15;0.00;;;;;;;2.48;100.00;100838.28;5220932;28;20033;-64
2022/11/19 06:06:01;;;;;;;0.90;0.20;;;;;;;2.51;100.00;100832.88;5219359;28;20038;-64
2022/11/19 06:08:32;;;;;;;0.47;0.08;;;;;;;2.53;100.00;100840.69;5224754;28;20160;-64
2022/11/19 06:11:04;;;;;;;0.68;0.20;;;;;;;2.51;100.00;100846.06;5241459;28;20029;-65
2022/11/19 06:13:35;;;;;;;0.65;0.20;;;;;;;2.51;100.00;100840.78;5225734;28;20029;-64
2022/11/19 06:16:06;;;;;;;0.35;0.20;;;;;;;2.50;100.00;100840.84;5225194;28;20034;-64
2022/11/19 06:18:37;;;;;;;0.57;0.10;;;;;;;2.48;100.00;100846.16;5229914;28;20026;-65
2022/11/19 06:21:09;;;;;;;0.90;0.30;;;;;;;2.44;100.00;100852.50;5229763;28;20034;-65
2022/11/19 06:23:40;;;;;;;1.70;0.30;;;;;;;2.39;100.00;100857.09;5230559;28;20025;-65
2022/11/19 06:26:21;;;;;;;0.52;0.20;;;;;;;2.40;100.00;100865.84;5233035;28;20091;-66
2022/11/19 06:28:53;;;;;;;1.05;0.22;;;;;;;2.38;100.00;100871.19;5231130;28;20256;-65
2022/11/19 06:31:24;;;;;;;0.68;0.15;;;;;;;2.34;100.00;100870.47;5225501;28;20048;-65
2022/11/19 06:33:56;;;;;;;0.90;0.43;;;;;;;2.33;100.00;100881.91;5229878;28;20683;-65
2022/11/19 06:36:27;;;;;;;2.30;0.30;;;;;;;2.33;100.00;100884.53;5236069;28;20048;-65
2022/11/19 06:38:58;;;;;;;2.38;0.32;;;;;;;2.30;100.00;100883.78;5239401;28;20151;-65
2022/11/19 06:41:29;;;;;;;0.82;0.15;;;;;;;2.27;100.00;100889.22;5237019;28;20025;-65
2022/11/19 06:44:01;;;;;;;0.75;0.22;;;;;;;2.25;100.00;100896.31;5233282;28;20044;-65
2022/11/19 06:46:32;;;;;;;2.00;0.82;;;;;;;2.21;100.00;100886.84;5232170;28;20087;-64
2022/11/19 06:49:04;;;;;;;2.20;0.65;;;;;;;2.19;100.00;100892.16;5231625;28;20087;-64
2022/11/19 06:51:35;;;;;;;1.95;0.50;;;;;;;2.13;100.00;100887.16;5226216;28;20061;-64
2022/11/19 06:54:07;;;;;;;3.25;0.45;;;;;;;2.11;100.00;100895.09;5218677;28;20025;-64
2022/11/19 06:56:38;;;;;;;2.03;0.77;;;;;;;2.06;100.00;100894.41;5226992;28;20462;-65
2022/11/19 06:59:09;;;;;;;2.78;0.63;;;;;;;2.04;100.00;100893.63;5236584;28;20364;-65
2022/11/19 07:01:40;;;;;;;1.75;0.47;;;;;;;2.02;100.00;100898.09;5237180;28;20461;-64
2022/11/19 07:04:12;;;;;;;1.35;0.50;;;;;;;2.01;100.00;100906.91;5234805;28;20415;-65
2022/11/19 07:06:43;;;;;;;1.75;0.45;;;;;;;1.98;100.00;100903.56;5233723;28;20055;-64
2022/11/19 07:09:14;;;;;;;2.80;0.82;;;;;;;1.93;100.00;100914.25;5219393;28;20033;-65
2022/11/19 07:11:46;;;;;;;3.95;1.33;;;;;;;1.90;100.00;100909.13;5232239;28;20025;-64
2022/11/19 07:14:17;;;;;;;3.10;1.10;;;;;;;1.87;100.00;100912.72;5239653;28;20037;-64
2022/11/19 07:16:48;;;;;;;2.92;1.15;;;;;;;1.85;100.00;100919.81;5236281;28;20029;-64
2022/11/19 07:19:19;;;;;;;2.65;0.82;;;;;;;1.84;100.00;100914.59;5236059;28;20582;-64
2022/11/19 07:21:51;;;;;;;2.63;0.82;;;;;;;1.83;100.00;100920.78;5237657;28;20488;-64
2022/11/19 07:24:22;;;;;;;2.40;0.70;;;;;;;1.80;100.00;100927.00;5229394;28;20029;-64
2022/11/19 07:26:56;;;;;;;2.67;0.82;;;;;;;1.79;100.00;100932.34;5227903;28;20072;-64
2022/11/19 07:29:27;;;;;;;;;;;;;;;1.76;100.00;100931.56;5230070;28;20049;-64
2022/11/19 07:32:00;;;;;;;2.28;0.70;;;;;;;1.76;100.00;100938.56;5236085;28;19917;-64
2022/11/19 07:34:31;;;;;;;1.95;0.60;;;;;;;1.74;100.00;100943.88;5232461;28;20033;-64
2022/11/19 07:37:02;;;;;;;3.03;1.00;;;;;;;1.70;100.00;100939.66;5235828;28;20040;-64
2022/11/19 07:39:33;;;;;;;2.03;0.68;;;;;;;1.70;100.00;100946.72;5235539;28;20075;-65
2022/11/19 07:44:54;;;;;;;3.03;0.60;;;;;;;1.67;100.00;100945.06;5233373;28;20470;-63
2022/11/19 07:47:25;;;;;;;2.15;0.55;;;;;;;1.66;100.00;100953.84;5235676;28;20112;-63
2022/11/19 07:49:57;;;;;;;2.25;0.70;;;;;;;1.66;100.00;100950.38;5234552;28;20071;-64
2022/11/19 07:52:29;;;;;;;2.65;0.80;;;;;;;1.67;100.00;100962.59;5231382;28;20033;-64
2022/11/19 07:55:01;;;;;;;3.28;0.93;;;;;;;1.65;100.00;100957.41;5233856;28;20464;-64
2022/11/19 07:57:32;;;;;;;3.63;0.88;;;;;;;1.66;100.00;100958.25;5236212;28;20029;-64
2022/11/19 08:00:05;;;;;;;3.60;0.80;;;;;;;1.66;100.00;100967.00;5234913;28;20490;-64
2022/11/19 08:02:36;;;;;;;1.90;0.80;;;;;;;1.65;100.00;100956.53;5229160;28;20025;-64
2022/11/19 08:05:08;;;;;;;3.30;0.60;;;;;;;1.67;100.00;100965.22;5233621;28;20030;-63
2022/11/19 08:07:40;;;;;;;3.40;0.85;;;;;;;1.66;100.00;100971.41;5223603;28;20033;-64
2022/11/19 08:10:11;;;;;;;1.92;0.63;;;;;;;1.66;100.00;100977.53;5230275;28;20049;-64
2022/11/19 08:13:01;;;;;;;2.92;0.85;;;;;;;1.66;100.00;100967.00;5235152;28;20038;-64
2022/11/19 08:15:33;;;;;;;2.85;0.88;;;;;;;1.66;100.00;100980.16;5234314;28;20127;-64
2022/11/19 08:18:14;;;;;;;3.78;0.68;;;;;;;1.66;100.00;100982.78;5235639;28;20496;-64
2022/11/19 08:20:47;;;;;;;1.67;0.45;;;;;;;1.68;100.00;100974.84;5235108;28;20021;-64
2022/11/19 08:23:19;;;;;;;1.95;0.50;;;;;;;1.67;100.00;100965.22;5230228;28;20033;-64
2022/11/19 08:25:51;;;;;;;2.55;0.80;;;;;;;1.68;100.00;100967.78;5228602;28;20029;-65
2022/11/19 08:28:23;;;;;;;1.73;0.60;;;;;;;1.70;100.00;100978.28;5229434;28;20481;-64
2022/11/19 08:30:54;;;;;;;3.83;0.85;;;;;;;1.73;100.00;100975.53;5228670;28;20087;-64
2022/11/19 08:33:25;;;;;;;4.63;0.60;;;;;;;1.76;100.00;100975.41;5230396;28;20065;-64
2022/11/19 08:35:57;;;;;;;2.05;0.30;;;;;;;1.74;100.00;100991.22;5231783;28;20036;-64
2022/11/19 08:38:28;;;;;;;3.25;0.50;;;;;;;1.74;100.00;100996.50;5235375;28;20460;-64
2022/11/19 08:43:49;;;;;;;2.42;0.90;;;;;;;1.77;100.00;100982.38;5231099;28;20042;-64
2022/11/19 08:46:21;;;;;;;2.20;0.60;;;;;;;1.79;100.00;100996.34;5231148;28;20029;-64
2022/11/19 08:48:52;;;;;;;2.10;0.55;;;;;;;1.79;100.00;100993.72;5233121;28;20072;-64
2022/11/19 08:51:23;;;;;;;3.65;0.43;;;;;;;1.82;100.00;100992.72;5234780;28;20061;-64
2022/11/19 08:53:55;;;;;;;1.27;0.30;;;;;;;1.81;100.00;100998.91;5231759;28;20280;-63
2022/11/19 08:56:27;;;;;;;1.88;0.68;;;;;;;1.82;100.00;101001.47;5232871;28;20061;-64
2022/11/19 08:58:58;;;;;;;3.25;0.77;;;;;;;1.80;100.00;100999.81;5238401;28;20026;-64
2022/11/19 09:01:30;;;;;;;3.20;0.70;;;;;;;1.81;100.00;101009.44;5232299;28;20026;-64
2022/11/19 09:04:01;;;;;;;2.97;1.05;;;;;;;1.81;100.00;101006.81;5234307;28;20025;-64
2022/11/19 09:06:33;;;;;;;2.40;0.65;;;;;;;1.81;100.00;101012.06;5234473;28;20549;-64
2022/11/19 09:09:05;;;;;;;1.55;0.35;;;;;;;1.82;100.00;101008.50;5231474;28;20022;-64
2022/11/19 09:11:36;;;;;;;2.28;0.50;;;;;;;1.83;100.00;101010.25;5232279;28;20155;-63
2022/11/19 09:14:07;;;;;;;2.88;0.82;;;;;;;1.81;100.00;101007.66;5230707;28;20065;-63
2022/11/19 09:16:38;;;;;;;2.20;0.50;;;;;;;1.79;100.00;101009.50;5230943;28;20041;-64
2022/11/19 09:19:10;;;;;;;2.72;0.60;;;;;;;1.84;100.00;101014.56;5234193;28;20076;-64
2022/11/19 09:21:41;;;;;;;1.55;0.60;;;;;;;1.86;100.00;101023.25;5233240;28;20028;-63
2022/11/19 09:24:12;;;;;;;2.42;0.47;;;;;;;1.86;100.00;101021.50;5222211;28;20547;-64
2022/11/19 09:26:44;;;;;;;2.47;0.80;;;;;;;1.84;100.00;101023.34;5234022;28;20122;-64
2022/11/19 09:29:15;;;;;;;2.17;0.40;;;;;;;1.84;100.00;101028.59;5234515;28;20487;-64
2022/11/19 09:31:46;;;;;;;2.88;0.63;;;;;;;1.82;100.00;101034.81;5233744;28;20041;-63
2022/11/19 09:34:18;;;;;;;3.88;1.02;;;;;;;1.82;100.00;101030.41;5232957;28;20025;-64
2022/11/19 09:36:50;;;;;;;3.25;0.80;;;;;;;1.84;100.00;101035.63;5232212;28;20044;-63
2022/11/19 09:39:21;;;;;;;2.83;0.75;;;;;;;1.81;100.00;101035.75;5231262;28;20073;-64
2022/11/19 09:42:11;;;;;;;2.78;0.60;;;;;;;1.82;100.00;101037.44;5231099;28;20509;-63
2022/11/19 09:45:01;;;;;;;1.45;0.50;;;;;;;1.86;100.00;101049.56;5230740;28;20040;-63
2022/11/19 09:48:04;;;;;;;2.00;0.60;;;;;;;1.84;100.00;101054.03;5233580;28;20021;-64
2022/11/19 09:50:58;;;;;;;1.73;0.60;;;;;;;1.83;100.00;101066.34;5232434;28;20053;-63
2022/11/19 09:53:42;;;;;;;1.97;0.57;;;;;;;1.79;100.00;101067.38;5226977;28;20120;-63
2022/11/19 09:56:28;;;;;;;1.90;0.32;;;;;;;1.79;100.00;101066.53;5224013;28;20033;-63
2022/11/19 09:59:05;;;;;;;1.75;0.65;;;;;;;1.79;100.00;101075.25;5231171;28;20033;-64
2022/11/19 10:01:37;;;;;;;1.60;0.35;;;;;;;1.76;100.00;101068.34;5226905;28;20029;-64
2022/11/19 10:04:09;;;;;;;2.53;0.70;;;;;;;1.72;100.00;101071.13;5216550;28;20032;-64
2022/11/19 10:06:47;;;;;;;2.35;0.63;;;;;;;1.70;100.00;101073.81;5226939;28;20029;-63
2022/11/19 10:09:58;;;;;;;2.65;0.55;;;;;;;1.71;100.00;101070.28;5216166;28;20029;-64
2022/11/19 10:12:51;;;;;;;2.20;0.73;;;;;;;1.67;100.00;101066.03;5221481;28;20033;-65
2022/11/19 10:15:22;;;;;;;2.25;0.70;;;;;;;1.65;100.00;101070.50;5224479;28;20041;-64
2022/11/19 10:18:15;;;;;;;4.43;1.65;;;;;;;1.63;100.00;101074.97;5229690;28;20034;-64
2022/11/19 10:20:54;;;;;;;1.70;0.43;;;;;;;1.65;100.00;101081.03;5222283;28;20040;-64
2022/11/19 10:23:41;;;;;;;2.97;0.80;;;;;;;1.66;100.00;101084.50;5224147;28;20087;-64
2022/11/19 10:26:31;;;;;;;3.05;0.70;;;;;;;1.66;100.00;101082.72;5231219;28;20430;-65
2022/11/19 10:29:11;;;;;;;2.42;0.60;;;;;;;1.68;100.00;101090.56;5226494;28;20109;-64
2022/11/19 10:31:47;;;;;;;1.35;0.45;;;;;;;1.65;100.00;101086.28;5221357;28;20029;-64
2022/11/19 10:34:31;;;;;;;3.10;0.63;;;;;;;1.63;100.00;101089.84;5230369;28;20406;-64
2022/11/19 10:37:09;;;;;;;2.47;0.80;;;;;;;1.62;100.00;101093.41;5226972;28;20368;-64
2022/11/19 10:39:49;;;;;;;1.33;0.35;;;;;;;1.60;100.00;101100.50;5230695;28;20067;-65
2022/11/19 10:42:25;;;;;;;2.65;0.63;;;;;;;1.57;100.00;101096.19;5230980;28;20030;-65
2022/11/19 10:45:05;;;;;;;2.28;0.70;;;;;;;1.55;100.00;101091.00;5233158;28;20045;-65
2022/11/19 10:47:46;;;;;;;2.30;0.55;;;;;;;1.57;100.00;101090.94;5233937;28;20455;-64
2022/11/19 10:50:20;;;;;;;2.80;0.57;;;;;;;1.58;100.00;101100.56;5229707;28;20060;-64
2022/11/19 10:52:56;;;;;;;2.40;1.00;;;;;;;1.53;100.00;101087.56;5231207;28;20041;-64
2022/11/19 10:55:34;;;;;;;1.95;0.50;;;;;;;1.52;100.00;101090.25;5231153;28;20375;-64
2022/11/19 10:58:11;;;;;;;3.22;0.93;;;;;;;1.53;100.00;101092.84;5230934;28;20464;-64
2022/11/19 11:00:42;;;;;;;3.17;0.55;;;;;;;1.54;100.00;101085.81;5232406;28;20043;-64
2022/11/19 11:03:27;;;;;;;2.63;0.68;;;;;;;1.56;100.00;101092.72;5236465;28;20029;-64
2022/11/19 11:06:04;;;;;;;2.13;0.50;;;;;;;1.58;100.00;101099.69;5236502;28;20477;-65
2022/11/19 11:08:50;;;;;;;3.55;1.13;;;;;;;1.58;100.00;101090.03;5235974;28;20036;-64
2022/11/19 11:14:50;;;;;;;1.48;0.30;;;;;;;1.56;100.00;101092.72;5237161;28;20427;-64
2022/11/19 11:17:31;;;;;;;1.73;0.55;;;;;;;1.60;100.00;101093.47;5235817;28;20496;-64
2022/11/19 11:20:19;;;;;;;1.90;0.40;;;;;;;1.60;100.00;101093.47;5237094;28;20045;-64
2022/11/19 11:23:03;;;;;;;2.40;0.75;;;;;;;1.62;100.00;101094.25;5229903;28;20432;-64
2022/11/19 11:25:37;;;;;;;1.75;0.38;;;;;;;1.62;100.00;101083.75;5224476;28;20380;-64
2022/11/19 11:28:20;;;;;;;1.88;0.50;;;;;;;1.60;100.00;101093.47;5236358;28;20021;-64
2022/11/19 11:30:53;;;;;;;2.47;0.45;;;;;;;1.62;100.00;101082.91;5232018;28;20045;-64
2022/11/19 11:33:27;;;;;;;2.50;0.80;;;;;;;1.60;100.00;101080.31;5236473;28;20045;-64
2022/11/19 11:36:09;;;;;;;2.40;0.70;;;;;;;1.57;100.00;101085.66;5233724;28;20029;-64
2022/11/19 11:38:44;;;;;;;3.10;0.80;;;;;;;1.57;100.00;101077.78;5236534;28;20025;-64
2022/11/19 11:41:18;;;;;;;4.82;1.02;;;;;;;1.59;100.00;101077.72;5233037;28;20024;-64
2022/11/19 11:44:02;;;;;;;1.95;0.60;;;;;;;1.61;100.00;101076.78;5231829;28;20026;-64
2022/11/19 11:46:38;;;;;;;1.90;0.60;;;;;;;1.63;100.00;101077.59;5235476;28;20079;-64
2022/11/19 11:49:26;;;;;;;2.80;0.95;;;;;;;1.70;100.00;101079.06;5234431;28;20337;-64
2022/11/19 11:52:02;;;;;;;1.08;0.45;;;;;;;1.73;100.00;101075.50;5232869;28;20050;-64
2022/11/19 11:54:35;;;;;;;2.58;0.80;;;;;;;1.73;100.00;101068.44;5235829;28;20033;-64
2022/11/19 11:57:41;;;;;;;2.10;0.50;;;;;;;1.75;100.00;101074.50;5233126;28;20208;-65
2022/11/19 12:00:41;;;;;;;1.90;0.52;;;;;;;1.75;100.00;101076.28;5234230;28;20419;-64
2022/11/19 12:03:17;;;;;;;1.90;0.60;;;;;;;1.72;100.00;101071.97;5231569;28;20029;-65
2022/11/19 12:05:48;;;;;;;2.35;0.45;;;;;;;1.73;100.00;101080.75;5225838;28;20026;-64
2022/11/19 12:08:46;;;;;;;1.30;0.47;;;;;;;1.72;100.00;101068.50;5232455;28;20395;-64
2022/11/19 12:11:52;;;;;;;1.45;0.40;;;;;;;1.71;100.00;101077.31;5233273;28;20044;-64
2022/11/19 12:14:36;;;;;;;1.48;0.47;;;;;;;1.71;100.00;101080.78;5223840;28;20052;-64
2022/11/19 12:17:45;;;;;;;1.67;0.47;;;;;;;1.70;100.00;101079.06;5233345;28;20108;-64
2022/11/19 12:20:42;;;;;;;1.35;0.70;;;;;;;1.71;100.00;101075.53;5231756;28;20037;-64
2022/11/19 12:23:27;;;;;;;2.45;0.40;;;;;;;1.74;100.00;101075.41;5231383;28;20030;-64
2022/11/19 12:26:32;;;;;;;2.00;0.73;;;;;;;1.72;100.00;101086.91;5236110;28;20026;-64
2022/11/19 12:29:28;;;;;;;0.47;0.17;;;;;;;1.72;100.00;101082.50;5235033;28;20025;-64
2022/11/19 12:32:11;;;;;;;2.28;0.30;;;;;;;1.71;100.00;101087.84;5225324;28;20030;-64